Terminal Aerodrome Forecast
Issued by NWS

Home | Current Version | Previous Version | Text Only | Print | Product List | Glossary On
Versions: 1 2 3 4 5 6 7 8 9 10 11 12 13 14
000
FTUS45 KVEF 020040 AAA
TAFBIH
TAF AMD
KBIH 020040Z 0201/0224 14012G22KT P6SM VCSH FEW060 BKN100
     FM020300 14008KT P6SM SCT100
     FM020500 32006KT P6SM FEW100
     FM021500 VRB05KT P6SM FEW250
     FM021900 17007KT P6SM SCT250=

USA.gov is the U.S. government's official web portal to all federal, state and local government web resources and services.